• Join FlightAware (Why Join?)
  • Login
  • US Flag 
08:57PM EST


 

Airport Tracker/Info


-or-


 

Live Flight TrackerFlight Track Log ✈ N240ER ✈ 23-Apr-2013 ✈ KCMI - KAZO

Flight Track Log - Related Links

Times and Time Zones

All times are in EDT time to prevent confusion due to time zone crossing. See the N240ER flight status page for this flight to view local times or setup timezone preferences in your user account.

Time Position Orientation Groundspeed Altitude Reporting Facility
EDT Latitude Longitude Course Direction KTS MPH feet Rate Location/Type
05:02PM 40.0497 -88.1639 64° Northeast 158 182 17,000  Level Chicago Center
05:04PM 40.1028 -88.0528 58° Northeast 178 205 6,700 -2,903 Descending Chicago Center
05:05PM 40.1311 -87.9922 59° Northeast 189 217 8,000 1,161 Climbing Chicago Center
05:06PM 40.2097 -87.8640 57° Northeast  Level FlightAware Approximate
05:06PM 40.1617 -87.9261 59° Northeast 205 236 9,100  Level Chicago Center
05:07PM 40.2406 -87.7967 64° Northeast  Level FlightAware Approximate
05:07PM 40.1981 -87.8483 58° Northeast 220 253 10,500  Level Chicago Center
05:08PM 40.2300 -87.7811 58° Northeast 219 252 11,700 1,161 Climbing Chicago Center
05:09PM 40.2614 -87.7128 59° Northeast 221 254 12,900 1,113 Climbing Chicago Center
05:10PM 40.2928 -87.6450 59° Northeast 219 252 14,000 1,065 Climbing Chicago Center
05:11PM 40.3319 -87.5606 59° Northeast 225 259 15,100 1,016 Climbing Chicago Center
05:12PM 40.3650 -87.4869 59° Northeast 233 268 16,100 919 Climbing Chicago Center
05:13PM 40.3975 -87.4178 58° Northeast 237 273 17,000 435 Climbing Chicago Center
05:14PM 40.4353 -87.3344 59° Northeast 258 297 17,000  Level Chicago Center
05:15PM 40.4786 -87.2414 59° Northeast 284 327 17,000  Level Chicago Center
05:16PM 40.5256 -87.1369 59° Northeast 280 322 17,000  Level Chicago Center
05:17PM 40.5667 -87.0589 55° Northeast 273 314 17,000 432 Level Chicago Center
05:18PM 40.6258 -87.0086 33° Northeast 249 287 17,900 871 Climbing Chicago Center
05:19PM 40.6797 -86.9619 33° Northeast 238 274 18,800 532 Climbing Chicago Center
05:20PM 40.7372 -86.9119 33° Northeast 246 283 19,000 97 Climbing Chicago Center
05:21PM 40.8131 -86.8428 35° Northeast 274 315 19,000  Level Chicago Center
05:22PM 40.8778 -86.7869 33° Northeast 279 321 19,000  Level Chicago Center
05:23PM 40.9414 -86.7294 34° Northeast 280 322 19,000  Level Chicago Center
05:24PM 41.0128 -86.6664 34° Northeast 281 323 19,000  Level Chicago Center
05:25PM 41.0778 -86.6078 34° Northeast 282 325 19,000  Level Chicago Center
05:26PM 41.1411 -86.5508 34° Northeast 278 320 19,000  Level Chicago Center
05:27PM 41.2056 -86.4942 33° Northeast 277 319 19,000  Level Chicago Center
05:28PM 41.2728 -86.4497 26° Northeast 268 308 19,000 -532 Level Chicago Center
05:30PM 41.3414 -86.4111 23° Northeast 267 307 17,900 -1,403 Descending Chicago Center
05:31PM 41.4244 -86.3692 21° North 266 306 16,100 -1,597 Descending Chicago Center
05:32PM 41.4928 -86.3414 17° North 258 297 14,600 -1,452 Descending Chicago Center
05:33PM 41.5611 -86.3111 18° North 258 297 13,100 -768 Descending Chicago Center
05:34PM 41.6264 -86.2833 18° North 248 285 13,000 -48 Descending Chicago Center
05:35PM 41.6828 -86.2364 32° Northeast 249 287 13,000  Level Chicago Center
05:36PM 41.7361 -86.1708 43° Northeast 259 298 13,000 -194 Level Chicago Center
05:37PM 41.8017 -86.0908 42° Northeast 265 305 12,600 -532 Descending Chicago Center
05:38PM 41.8544 -86.0258 43° Northeast 260 299 11,900 -677 Descending Chicago Center
05:39PM 41.9050 -85.9636 42° Northeast 249 287 11,200 -435 Descending Chicago Center
05:40PM 41.9569 -85.8992 43° Northeast 253 291 11,000 -145 Descending Chicago Center
05:41PM 42.0150 -85.8275 43° Northeast 252 290 10,900 -532 Descending Chicago Center
05:42PM 42.0675 -85.7606 43° Northeast 260 299 9,900 -919 Descending Chicago Center
05:43PM 42.1222 -85.7253 26° Northeast 249 287 9,000 -1,113 Descending Chicago Center
05:44PM 42.1958 -85.6833 23° Northeast 241 277 7,600 -1,258 Descending Chicago Center
05:45PM 42.2611 -85.6575 16° North 246 283 6,400 -1,258 Descending Chicago Center
05:46PM 42.3186 -85.6625 356° North 234 269 5,000 -1,645 Descending Chicago Center
05:47PM 42.3864 -85.6336 17° North 215 247 3,000 -968 Descending Chicago Center
05:48PM 42.3736 -85.5736 106° East 185 213 3,000 -48 Level Chicago Center
05:49PM 42.3336 -85.5714 178° South 148 170 2,900 -336 Descending Chicago Center
05:50PM 42.3069 -85.5647 170° South 105 121 2,300 -528 Descending Chicago Center
05:51PM 42.2847 -85.5600 171° South 79 91 1,800 -242 Descending Chicago Center
05:52PM 42.2647 -85.5561 172° South 78 90 1,800  Level Chicago Center